Time;durP1;ratioP1;P1;durP2;ratioP2;P2;SDS_P1;SDS_P2;PMS_P1;PMS_P2;Temp;Humidity;BMP_temperature;BMP_pressure;BME280_temperature;BME280_humidity;BME280_pressure;Samples;Min_cycle;Max_cycle;Signal;HPM_P1;HPM_P2
2022/01/04 00:00:14;;;;;;;;;25.20;22.80;;;;;11.01;51.17;99333.28;5033719;28;8849;-76
2022/01/04 00:03:03;;;;;;;;;17.80;16.20;;;;;11.02;51.09;99330.69;5051834;28;8864;-78
2022/01/04 00:05:32;;;;;;;;;28.80;26.00;;;;;11.03;50.68;99331.53;5051548;28;8879;-80
2022/01/04 00:08:01;;;;;;;;;16.00;14.80;;;;;10.99;51.03;99325.47;5034069;28;8841;-78
2022/01/04 00:10:30;;;;;;;;;18.80;17.00;;;;;11.05;50.68;99321.97;5051423;28;8896;-77
2022/01/04 00:15:46;;;;;;;;;17.80;16.60;;;;;11.04;51.80;99320.22;5048459;28;8985;-77
2022/01/04 00:18:16;;;;;;;;;20.40;19.40;;;;;11.24;51.21;99318.34;5048492;28;8918;-78
2022/01/04 00:20:44;;;;;;;;;32.20;29.20;;;;;11.37;51.37;99313.91;5015714;28;9712;-77
2022/01/04 00:23:13;;;;;;;;;27.20;26.00;;;;;11.48;51.08;99311.22;5048638;28;8843;-78
2022/01/04 00:25:42;;;;;;;;;34.20;31.00;;;;;11.60;50.58;99312.84;5048417;28;8851;-77
2022/01/04 00:28:11;;;;;;;;;24.40;21.40;;;;;11.66;50.83;99305.84;5032159;28;8859;-76
2022/01/04 00:30:41;;;;;;;;;19.40;17.60;;;;;11.72;50.38;99302.31;5032453;28;8855;-78
2022/01/04 00:33:14;;;;;;;;;26.60;25.40;;;;;11.74;50.37;99292.72;5031860;28;8905;-79
2022/01/04 00:35:44;;;;;;;;;20.20;18.20;;;;;11.77;50.95;99289.19;5032020;28;8945;-77
2022/01/04 00:38:13;;;;;;;;;19.00;17.40;;;;;11.81;50.65;99285.66;5048463;28;8917;-77
2022/01/04 00:40:42;;;;;;;;;14.00;12.00;;;;;11.85;50.84;99282.13;5015543;28;8851;-78
2022/01/04 00:43:10;;;;;;;;;20.00;15.20;;;;;11.87;50.65;99275.16;5050506;28;8827;-77
2022/01/04 00:45:39;;;;;;;;;30.20;26.00;;;;;11.89;50.81;99270.81;5051631;28;8987;-77
2022/01/04 00:50:54;;;;;;;;;17.20;12.40;;;;;11.84;50.97;99267.38;4976057;28;8858;-78
2022/01/04 00:53:23;;;;;;;;;14.00;11.20;;;;;11.83;51.43;99278.69;4975636;28;8885;-78
2022/01/04 00:55:52;;;;;;;;;9.00;9.00;;;;;11.83;51.29;99266.50;4992008;28;8885;-77
2022/01/04 00:58:20;;;;;;;;;15.40;15.40;;;;;11.84;51.10;99268.22;4953305;28;8886;-78
2022/01/04 01:00:49;;;;;;;;;26.60;22.60;;;;;11.82;51.03;99275.22;4935856;28;8949;-78
2022/01/04 01:03:18;;;;;;;;;19.20;15.80;;;;;11.84;51.62;99275.19;4937631;28;9014;-78
2022/01/04 01:05:47;;;;;;;;;30.40;25.00;;;;;11.84;51.28;99281.28;4937413;28;8855;-80
2022/01/04 01:08:17;;;;;;;;;27.00;25.80;;;;;11.82;51.10;99285.66;4911762;29;8952;-78
2022/01/04 01:10:48;;;;;;;;;24.20;21.20;;;;;11.81;51.42;99283.06;4911715;29;8898;-80
2022/01/04 01:13:17;;;;;;;;;27.00;25.40;;;;;11.76;51.01;99279.63;4895933;29;8881;-78
2022/01/04 01:15:47;;;;;;;;;24.60;21.20;;;;;11.67;51.34;99276.22;4911491;29;8873;-76
2022/01/04 01:18:17;;;;;;;;;25.00;21.40;;;;;11.70;51.37;99276.19;4911871;29;9747;-79
2022/01/04 01:20:48;;;;;;;;;22.40;20.40;;;;;11.74;51.89;99273.53;4911580;29;8873;-80
2022/01/04 01:23:18;;;;;;;;;21.80;15.40;;;;;11.70;51.90;99273.59;4895863;29;8899;-79
2022/01/04 01:25:48;;;;;;;;;22.00;19.60;;;;;11.74;51.55;99268.31;4911614;29;8899;-80
2022/01/04 01:28:17;;;;;;;;;15.00;15.00;;;;;11.72;52.20;99265.75;4930310;28;8852;-78
2022/01/04 01:30:46;;;;;;;;;12.40;8.60;;;;;11.74;52.26;99268.31;4955928;28;8861;-76
2022/01/04 01:33:15;;;;;;;;;14.00;14.00;;;;;11.70;51.47;99263.16;4987946;28;8865;-76
2022/01/04 01:35:44;;;;;;;;;11.80;10.80;;;;;11.73;51.94;99275.28;4955986;28;9021;-81
2022/01/04 01:38:14;;;;;;;;;12.00;9.40;;;;;11.65;52.02;99270.16;4972176;28;8866;-79
2022/01/04 01:40:44;;;;;;;;;9.60;8.40;;;;;11.63;52.85;99265.84;5029878;28;8953;-78
2022/01/04 01:43:13;;;;;;;;;10.40;9.60;;;;;11.74;52.02;99263.97;5011945;28;8855;-77
2022/01/04 01:45:43;;;;;;;;;12.00;12.00;;;;;11.76;51.99;99262.22;5012426;28;8974;-77
2022/01/04 01:48:12;;;;;;;;;13.60;13.60;;;;;11.82;52.31;99256.91;5012124;28;8844;-77
2022/01/04 01:50:41;;;;;;;;;19.60;18.20;;;;;11.83;52.31;99255.16;5028570;28;8851;-78
2022/01/04 01:53:10;;;;;;;;;25.40;20.40;;;;;11.72;52.29;99255.31;5011806;28;8864;-78
2022/01/04 01:55:38;;;;;;;;;23.00;20.00;;;;;11.75;52.20;99246.56;5028610;28;8847;-76
2022/01/04 01:58:08;;;;;;;;;18.00;16.80;;;;;11.70;51.96;99237.03;5058909;28;9296;-79
2022/01/04 02:00:37;;;;;;;;;27.80;24.40;;;;;11.73;52.55;99241.34;5031842;28;8871;-76
2022/01/04 02:03:06;;;;;;;;;21.00;19.00;;;;;11.76;51.98;99235.22;5047915;28;8857;-78
2022/01/04 02:05:36;;;;;;;;;14.00;12.80;;;;;11.81;51.71;99222.97;5031471;28;8875;-76
2022/01/04 02:08:05;;;;;;;;;15.60;14.40;;;;;11.84;51.65;99230.78;5047922;28;8868;-76
2022/01/04 02:10:34;;;;;;;;;18.60;14.60;;;;;11.92;52.04;99236.81;5047939;28;8891;-78
2022/01/04 02:13:03;;;;;;;;;14.00;13.00;;;;;11.94;51.52;99232.44;4997665;28;9615;-79
2022/01/04 02:15:33;;;;;;;;;32.20;28.00;;;;;12.04;51.22;99234.09;5064434;28;8821;-80
2022/01/04 02:18:02;;;;;;;;;31.80;27.60;;;;;12.07;51.28;99231.41;5047617;28;8865;-78
2022/01/04 02:20:32;;;;;;;;;31.00;28.00;;;;;12.10;50.76;99225.31;5009891;28;8917;-77
2022/01/04 02:23:01;;;;;;;;;20.80;20.20;;;;;12.14;51.04;99210.44;5026648;28;8969;-79
2022/01/04 02:25:30;;;;;;;;;18.00;18.00;;;;;12.15;50.88;99206.94;4993843;28;8919;-79
2022/01/04 02:27:58;;;;;;;;;27.00;22.20;;;;;12.13;50.86;99204.34;5009987;28;8967;-78
2022/01/04 02:30:28;;;;;;;;;15.60;14.40;;;;;12.05;50.88;99198.34;5010195;28;8862;-76
2022/01/04 02:32:56;;;;;;;;;15.60;15.00;;;;;11.97;51.08;99206.28;5009885;28;8860;-79
2022/01/04 02:35:30;;;;;;;;;15.40;14.80;;;;;11.94;51.10;99206.31;5009863;28;8864;-79
2022/01/04 02:38:02;;;;;;;;;13.40;13.40;;;;;11.98;51.11;99194.94;4993932;28;8866;-78
2022/01/04 02:40:31;;;;;;;;;15.00;13.00;;;;;12.02;51.61;99203.59;5026233;28;8963;-76
2022/01/04 02:43:01;;;;;;;;;11.80;11.80;;;;;12.05;50.67;99200.97;5026366;28;8862;-78
2022/01/04 02:45:30;;;;;;;;;53.50;45.25;;;;;11.39;52.66;99212.09;5009967;28;8856;-76
2022/01/04 02:47:59;;;;;;;;;77.25;61.75;;;;;10.53;55.08;99218.81;5009823;28;9010;-77
2022/01/04 02:50:28;;;;;;;;;76.33;60.33;;;;;10.28;55.48;99216.31;4993372;28;8868;-78
2022/01/04 02:52:57;;;;;;;;;81.67;63.33;;;;;10.11;55.27;99229.41;5047386;28;9192;-79
2022/01/04 02:55:27;;;;;;;;;80.75;63.50;;;;;10.23;54.90;99218.06;5047387;28;9129;-78
2022/01/04 02:57:56;;;;;;;;;71.00;56.50;;;;;10.23;54.88;99212.00;5046947;28;8867;-79
2022/01/04 03:00:26;;;;;;;;;66.75;53.25;;;;;10.23;55.28;99214.59;5063782;28;8856;-80
2022/01/04 03:02:55;;;;;;;;;37.80;36.40;;;;;10.15;56.11;99212.00;5064551;28;8880;-79
2022/01/04 03:05:24;;;;;;;;;38.00;33.00;;;;;9.65;57.89;99213.91;5013507;28;8979;-79
2022/01/04 03:07:52;;;;;;;;;28.20;27.60;;;;;9.86;57.23;99205.16;5047386;28;8873;-77
2022/01/04 03:10:21;;;;;;;;;60.00;43.00;;;;;10.06;56.37;99199.03;5029045;28;8856;-78
2022/01/04 03:12:51;;;;;;;;;64.25;51.25;;;;;10.18;55.81;99200.72;5029675;28;8847;-77
2022/01/04 03:15:20;;;;;;;;;61.25;49.75;;;;;10.10;56.00;99200.75;5013052;28;8984;-77
2022/01/04 03:17:48;;;;;;;;;65.75;53.00;;;;;10.19;55.48;99202.44;5012412;28;8836;-78
2022/01/04 03:20:17;;;;;;;;;69.00;55.75;;;;;10.25;55.02;99207.63;5012800;28;8839;-79
2022/01/04 03:22:46;;;;;;;;;73.25;56.25;;;;;10.29;55.14;99204.13;5029279;28;8847;-80
2022/01/04 03:25:15;;;;;;;;;68.75;55.50;;;;;10.30;55.24;99213.66;5000295;28;8863;-77
2022/01/04 03:27:43;;;;;;;;;72.25;57.75;;;;;10.32;55.44;99197.19;5033007;28;8844;-78
2022/01/04 03:30:14;;;;;;;;;73.75;58.50;;;;;10.35;54.90;99193.69;5016693;28;8929;-77
2022/01/04 03:32:43;;;;;;;;;69.25;56.75;;;;;10.36;55.21;99187.63;5017052;28;8856;-78
2022/01/04 03:35:12;;;;;;;;;67.25;53.25;;;;;10.37;54.82;99185.88;5032971;28;8828;-79
2022/01/04 03:37:40;;;;;;;;;74.50;56.25;;;;;10.38;55.14;99183.28;5032819;28;8886;-79
2022/01/04 03:40:10;;;;;;;;;66.00;52.75;;;;;10.37;54.96;99172.84;5016430;28;8836;-78
2022/01/04 03:42:39;;;;;;;;;71.50;56.50;;;;;10.36;54.74;99171.09;5016461;28;8852;-79
2022/01/04 03:45:08;;;;;;;;;71.50;55.00;;;;;10.36;55.14;99160.69;5033012;28;8956;-80
2022/01/04 03:47:38;;;;;;;;;70.00;56.75;;;;;10.31;55.29;99153.75;4996418;28;8870;-78
2022/01/04 03:50:07;;;;;;;;;64.75;53.50;;;;;10.24;55.76;99138.13;5009716;28;8874;-79
2022/01/04 03:52:36;;;;;;;;;52.75;43.25;;;;;10.20;56.03;99128.59;4960982;28;8972;-78
2022/01/04 03:55:07;;;;;;;;;49.25;40.75;;;;;10.18;56.46;99128.59;4945408;28;8989;-77
2022/01/04 03:57:37;;;;;;;;;66.25;53.50;;;;;10.15;56.33;99126.91;4976671;28;8875;-80
2022/01/04 04:00:08;;;;;;;;;61.25;49.75;;;;;10.14;56.05;99125.16;5009355;28;8882;-77
2022/01/04 04:02:41;;;;;;;;;32.80;31.60;;;;;10.10;56.18;99112.16;4962358;28;9016;-77
2022/01/04 04:05:10;;;;;;;;;31.00;29.00;;;;;10.09;56.28;99120.84;4993096;28;9058;-77
2022/01/04 04:07:38;;;;;;;;;26.40;24.40;;;;;10.08;56.01;99104.34;4992741;28;8871;-79
2022/01/04 04:10:08;;;;;;;;;50.75;41.75;;;;;10.11;56.44;99104.34;5009127;28;9005;-77
2022/01/04 04:12:37;;;;;;;;;58.75;49.00;;;;;10.12;56.13;99098.25;4992678;28;8855;-79
2022/01/04 04:15:08;;;;;;;;;50.75;42.50;;;;;10.17;56.20;99082.59;4953686;28;8861;-78
2022/01/04 04:17:37;;;;;;;;;36.20;31.00;;;;;10.15;56.52;99077.41;4970164;28;8893;-77
2022/01/04 04:20:08;;;;;;;;;34.60;30.00;;;;;10.19;56.17;99082.56;4956967;28;8990;-78
2022/01/04 04:22:37;;;;;;;;;26.00;23.20;;;;;10.17;56.29;99082.59;4957161;28;8849;-79
2022/01/04 04:25:06;;;;;;;;;47.25;38.75;;;;;10.19;55.87;99093.88;4957304;28;8849;-79
2022/01/04 04:27:35;;;;;;;;;58.00;46.75;;;;;10.17;56.04;99085.22;4989302;28;8887;-77
2022/01/04 04:30:05;;;;;;;;;62.25;48.50;;;;;10.19;56.06;99090.38;4973417;28;8965;-79
2022/01/04 04:32:34;;;;;;;;;58.00;47.50;;;;;10.18;56.23;99091.28;4973069;28;8853;-79
2022/01/04 04:35:03;;;;;;;;;55.00;44.00;;;;;10.17;56.31;99092.13;4973016;28;8927;-78
2022/01/04 04:37:33;;;;;;;;;63.00;52.00;;;;;10.15;56.12;99103.44;4934195;28;8869;-78
2022/01/04 04:40:02;;;;;;;;;32.80;31.20;;;;;10.13;55.59;99100.00;4934504;28;8880;-79
2022/01/04 04:42:31;;;;;;;;;20.40;18.60;;;;;10.13;54.31;99102.59;4950698;28;8927;-78
2022/01/04 04:45:00;;;;;;;;;23.60;23.00;;;;;10.15;53.82;99103.44;4950340;28;8964;-77
2022/01/04 04:47:29;;;;;;;;;34.60;32.20;;;;;10.18;53.93;99097.34;4975989;28;8850;-78
2022/01/04 04:49:58;;;;;;;;;39.25;37.50;;;;;10.17;53.89;99098.22;4992304;28;9008;-78
2022/01/04 04:52:27;;;;;;;;;48.75;41.25;;;;;10.21;54.23;99091.22;4992292;28;8846;-79
2022/01/04 04:54:58;;;;;;;;;44.75;41.25;;;;;10.21;53.88;99089.53;4992209;28;8873;-77
2022/01/04 04:57:27;;;;;;;;;25.40;23.80;;;;;10.23;53.48;99082.56;5000533;28;8911;-80
2022/01/04 04:59:55;;;;;;;;;38.00;34.20;;;;;10.25;53.21;99082.56;5012710;28;8856;-78
2022/01/04 05:02:24;;;;;;;;;31.80;28.80;;;;;10.27;53.66;99086.88;4969898;28;9699;-77
2022/01/04 05:04:53;;;;;;;;;28.60;28.60;;;;;10.27;53.51;99089.47;4970007;28;8974;-79
2022/01/04 05:07:22;;;;;;;;;32.80;30.60;;;;;10.23;53.27;99085.16;4953885;28;8969;-77
2022/01/04 05:09:50;;;;;;;;;40.00;37.00;;;;;10.08;53.97;99083.50;4953889;28;8858;-77
2022/01/04 05:12:20;;;;;;;;;57.00;46.25;;;;;10.10;54.03;99086.13;4970269;28;8871;-79
2022/01/04 05:14:49;;;;;;;;;65.00;52.50;;;;;9.86;55.10;99093.19;4976027;28;8840;-78
2022/01/04 05:17:20;;;;;;;;;55.75;45.00;;;;;9.69;55.73;99079.38;4972916;28;8864;-78
2022/01/04 05:19:49;;;;;;;;;40.75;37.50;;;;;9.57;55.09;99080.31;4989190;28;8857;-78
2022/01/04 05:22:17;;;;;;;;;42.25;37.75;;;;;9.63;54.82;99080.28;4957052;28;8975;-78
2022/01/04 05:24:46;;;;;;;;;48.50;39.75;;;;;9.54;54.39;99068.16;4989007;28;8860;-78
2022/01/04 05:27:15;;;;;;;;;41.50;37.00;;;;;9.39;55.13;99069.94;4989038;28;8856;-78
2022/01/04 05:29:45;;;;;;;;;60.75;50.75;;;;;9.38;56.06;99076.91;4969545;28;8880;-81
2022/01/04 05:32:14;;;;;;;;;67.25;52.50;;;;;9.47;55.87;99068.19;4953650;28;8828;-79
2022/01/04 05:34:43;;;;;;;;;71.25;55.75;;;;;9.34;55.36;99064.78;5010160;28;8932;-78
2022/01/04 05:37:11;;;;;;;;;72.25;55.00;;;;;9.31;56.15;99067.38;5028482;28;8842;-76
2022/01/04 05:39:40;;;;;;;;;70.00;55.25;;;;;9.27;55.42;99065.66;4979125;28;8888;-77
2022/01/04 05:42:09;;;;;;;;;61.50;49.50;;;;;9.24;55.75;99065.66;4991387;28;8911;-78
2022/01/04 05:44:38;;;;;;;;;62.75;51.50;;;;;9.10;55.61;99074.38;4991492;28;8836;-78
2022/01/04 05:47:09;;;;;;;;;61.25;50.50;;;;;8.93;55.95;99069.19;4991256;28;8892;-78
2022/01/04 05:49:37;;;;;;;;;57.50;46.00;;;;;8.78;55.88;99058.81;4991515;28;8837;-79
2022/01/04 05:52:06;;;;;;;;;46.75;41.25;;;;;8.61;57.10;99068.38;4956298;28;8949;-79
2022/01/04 05:54:36;;;;;;;;;40.50;37.50;;;;;8.76;56.75;99065.75;4955936;28;8909;-77
2022/01/04 05:57:05;;;;;;;;;45.50;41.75;;;;;8.80;55.89;99072.69;4960951;28;9046;-77
2022/01/04 05:59:34;;;;;;;;;42.75;38.75;;;;;8.88;56.15;99063.13;5007672;28;8843;-77
2022/01/04 06:02:04;;;;;;;;;43.00;38.25;;;;;8.91;55.71;99070.94;4991444;28;9198;-77
2022/01/04 06:04:35;;;;;;;;;36.00;32.00;;;;;8.89;55.52;99069.22;4976041;28;8873;-79
2022/01/04 06:07:04;;;;;;;;;34.50;33.00;;;;;8.93;54.98;99073.53;4991707;28;8912;-80
2022/01/04 06:09:41;;;;;;;;;36.25;30.75;;;;;8.89;55.10;99069.22;4975638;28;8870;-77
2022/01/04 06:14:54;;;;;;;;;34.50;27.50;;;;;9.03;54.88;99063.97;4999287;28;8848;-79
2022/01/04 06:17:28;;;;;;;;;39.75;32.25;;;;;9.11;54.68;99063.13;4994859;28;8868;-77
2022/01/04 06:19:59;;;;;;;;;32.50;31.25;;;;;9.24;54.62;99061.31;4978514;28;8868;-80
2022/01/04 06:22:29;;;;;;;;;34.25;32.50;;;;;9.32;53.94;99061.31;5011705;28;8843;-79
2022/01/04 06:24:58;;;;;;;;;38.25;35.00;;;;;9.35;53.77;99058.69;5028518;28;8968;-78
2022/01/04 06:27:27;;;;;;;;;40.00;35.75;;;;;9.40;54.20;99059.53;5028883;28;8913;-77
2022/01/04 06:29:56;;;;;;;;;39.00;32.25;;;;;9.46;54.05;99058.66;5028548;28;8851;-78
2022/01/04 06:32:25;;;;;;;;;40.50;38.75;;;;;9.50;53.33;99056.03;5029207;28;8978;-78
2022/01/04 06:34:54;;;;;;;;;34.25;32.50;;;;;9.45;53.32;99055.19;5012210;28;9010;-79
2022/01/04 06:37:24;;;;;;;;;45.50;39.50;;;;;9.45;53.54;99055.19;5028154;28;8859;-78
2022/01/04 06:39:53;;;;;;;;;37.75;34.50;;;;;9.43;53.53;99058.66;5044678;28;8883;-78
2022/01/04 06:42:22;;;;;;;;;37.00;32.75;;;;;9.39;53.42;99063.00;5011638;28;8906;-78
2022/01/04 06:44:51;;;;;;;;;39.25;35.50;;;;;9.49;53.44;99061.22;5028757;28;8970;-77
2022/01/04 06:47:19;;;;;;;;;43.75;38.00;;;;;9.39;54.14;99065.59;5029681;28;8855;-77
2022/01/04 06:49:48;;;;;;;;;34.75;29.25;;;;;9.44;53.30;99065.59;5028100;28;8894;-79
2022/01/04 06:52:17;;;;;;;;;33.50;32.50;;;;;9.55;53.89;99064.69;5044529;28;8848;-76
2022/01/04 06:54:47;;;;;;;;;36.50;34.25;;;;;9.53;52.83;99065.56;5027973;28;8996;-79
2022/01/04 06:57:19;;;;;;;;;39.75;36.50;;;;;9.46;53.65;99066.47;5035955;28;8833;-79
2022/01/04 06:59:47;;;;;;;;;37.50;36.25;;;;;9.48;53.36;99067.31;5051746;28;8887;-80
2022/01/04 07:02:16;;;;;;;;;42.00;37.75;;;;;9.46;53.46;99069.06;5035469;28;8872;-78
2022/01/04 07:04:45;;;;;;;;;46.00;35.75;;;;;9.50;53.88;99070.78;5052065;28;8849;-79
2022/01/04 07:07:14;;;;;;;;;36.25;32.25;;;;;9.52;53.23;99061.22;5051898;28;8869;-80
2022/01/04 07:09:43;;;;;;;;;34.00;31.20;;;;;9.46;53.76;99059.50;5002407;28;8899;-77
2022/01/04 07:12:13;;;;;;;;;38.50;33.50;;;;;9.51;53.74;99064.72;5052206;28;8845;-76
2022/01/04 07:14:42;;;;;;;;;48.25;38.50;;;;;9.33;53.87;99066.50;5052950;28;8950;-79
2022/01/04 07:17:11;;;;;;;;;25.60;25.60;;;;;9.45;53.78;99070.81;5052049;28;8845;-80
2022/01/04 07:19:40;;;;;;;;;30.80;26.80;;;;;9.48;53.32;99051.72;5050825;28;8887;-80
2022/01/04 07:22:08;;;;;;;;;32.40;28.00;;;;;9.48;53.06;99052.56;5051490;28;9114;-78
2022/01/04 07:24:38;;;;;;;;;33.60;30.40;;;;;9.40;53.94;99051.75;5053183;28;8847;-76
2022/01/04 07:27:07;;;;;;;;;24.20;19.80;;;;;9.48;53.63;99049.97;5069818;28;8840;-80
2022/01/04 07:29:37;;;;;;;;;29.40;28.20;;;;;9.54;53.04;99049.94;5036728;28;8852;-79
2022/01/04 07:32:07;;;;;;;;;23.00;21.20;;;;;9.65;52.97;99049.03;5037165;28;8855;-78
2022/01/04 07:34:35;;;;;;;;;25.60;22.00;;;;;9.71;53.20;99051.59;5053592;28;8852;-79
2022/01/04 07:37:04;;;;;;;;;31.00;28.20;;;;;9.73;53.21;99055.94;5033099;28;9020;-77
2022/01/04 07:39:33;;;;;;;;;33.00;28.20;;;;;9.93;52.62;99052.34;5016323;28;9017;-79
2022/01/04 07:42:03;;;;;;;;;35.00;32.60;;;;;9.97;52.30;99045.38;5017495;28;8849;-79
2022/01/04 07:44:34;;;;;;;;;31.20;28.20;;;;;9.99;52.87;99048.84;5033408;28;8873;-79
2022/01/04 07:47:04;;;;;;;;;30.80;26.00;;;;;10.25;52.23;99046.94;5049529;28;8838;-79
2022/01/04 07:49:33;;;;;;;;;30.60;30.40;;;;;10.50;51.95;99044.16;5016872;28;8846;-78
2022/01/04 07:52:03;;;;;;;;;35.40;35.40;;;;;10.67;51.49;99049.22;5033150;28;8838;-81
2022/01/04 07:54:31;;;;;;;;;39.25;36.25;;;;;10.77;51.15;99044.78;5000881;28;8897;-78
2022/01/04 07:57:00;;;;;;;;;41.00;35.00;;;;;10.84;50.95;99044.72;4996552;28;8866;-78
2022/01/04 07:59:30;;;;;;;;;42.00;39.25;;;;;10.88;50.96;99042.94;5032929;28;8892;-78
2022/01/04 08:01:59;;;;;;;;;45.00;39.00;;;;;10.98;50.82;99039.34;5033065;28;8858;-78
2022/01/04 08:04:29;;;;;;;;;50.50;41.75;;;;;11.08;50.54;99040.13;5033286;28;9816;-81
2022/01/04 08:06:58;;;;;;;;;53.50;45.00;;;;;10.94;50.75;99040.25;5049306;28;8846;-80
2022/01/04 08:09:27;;;;;;;;;44.00;39.25;;;;;10.87;50.92;99043.84;5034238;28;8845;-77
2022/01/04 08:11:55;;;;;;;;;47.25;38.50;;;;;11.04;50.80;99048.84;5067315;28;8856;-77
2022/01/04 08:14:24;;;;;;;;;41.75;38.50;;;;;11.17;50.39;99044.38;5050060;28;9711;-78
2022/01/04 08:16:54;;;;;;;;;43.75;39.50;;;;;11.15;50.70;99038.31;5050491;28;8861;-78
2022/01/04 08:19:23;;;;;;;;;36.50;35.75;;;;;11.12;50.99;99037.47;5049876;28;9023;-79
2022/01/04 08:21:53;;;;;;;;;53.25;41.00;;;;;11.10;51.03;99038.38;5016681;28;8861;-79
2022/01/04 08:24:21;;;;;;;;;40.75;36.50;;;;;11.28;50.60;99050.34;5050406;28;8875;-78
2022/01/04 08:26:50;;;;;;;;;44.25;38.50;;;;;11.25;50.68;99048.63;5048652;28;8886;-76
2022/01/04 08:29:19;;;;;;;;;41.75;38.25;;;;;11.38;50.24;99046.75;5015712;28;8858;-78
2022/01/04 08:31:48;;;;;;;;;45.25;39.50;;;;;11.44;49.95;99036.22;5049116;28;8889;-77
2022/01/04 08:34:17;;;;;;;;;20.80;16.00;;;;;11.52;50.47;99031.75;4984191;28;9615;-78
2022/01/04 08:36:46;;;;;;;;;35.80;31.40;;;;;11.70;49.81;99020.22;5015807;28;8885;-81
2022/01/04 08:39:16;;;;;;;;;36.75;35.50;;;;;11.80;49.22;99020.97;5032147;28;8866;-77
2022/01/04 08:41:46;;;;;;;;;31.80;30.00;;;;;12.05;49.65;99024.09;4967355;28;8861;-76
2022/01/04 08:44:15;;;;;;;;;32.00;30.00;;;;;12.18;49.26;99010.88;5015221;28;8874;-77
2022/01/04 08:46:44;;;;;;;;;30.80;26.60;;;;;12.27;48.81;99008.09;5032166;28;8858;-78
2022/01/04 08:49:13;;;;;;;;;28.20;28.20;;;;;12.32;49.04;99011.50;5015662;28;8839;-77
2022/01/04 08:51:42;;;;;;;;;25.80;25.40;;;;;12.35;48.75;99002.75;5015654;28;8850;-78
2022/01/04 08:54:11;;;;;;;;;22.40;22.00;;;;;12.46;48.27;99006.91;5031890;28;8894;-78
2022/01/04 08:56:43;;;;;;;;;27.00;23.20;;;;;12.59;48.54;99015.41;4999520;28;9780;-79
2022/01/04 08:59:13;;;;;;;;;23.00;20.40;;;;;12.52;48.19;99010.31;5032255;28;8850;-78
2022/01/04 09:01:42;;;;;;;;;27.80;26.20;;;;;12.44;49.04;99013.06;4984191;28;8838;-78
2022/01/04 09:04:11;;;;;;;;;31.60;30.20;;;;;12.66;48.73;99013.53;5012712;28;8848;-78
2022/01/04 09:06:40;;;;;;;;;33.20;31.00;;;;;12.84;48.21;99009.75;5024693;28;9088;-77
2022/01/04 09:09:09;;;;;;;;;27.80;25.80;;;;;12.92;48.18;99005.22;5008827;28;8850;-79
2022/01/04 09:11:38;;;;;;;;;24.20;24.20;;;;;12.94;46.98;98999.97;5008577;28;8850;-79
2022/01/04 09:14:24;;;;;;;;;19.80;19.80;;;;;12.90;47.81;98993.06;5008244;28;9722;-78
2022/01/04 09:19:40;;;;;;;;;24.80;22.60;;;;;13.14;47.39;98999.59;4976053;28;9608;-78
2022/01/04 09:22:09;;;;;;;;;26.40;24.80;;;;;12.97;48.09;98989.44;5007172;28;8846;-78
2022/01/04 09:24:38;;;;;;;;;28.80;24.20;;;;;13.06;48.24;98994.47;5024282;28;8892;-79
2022/01/04 09:27:06;;;;;;;;;24.80;23.60;;;;;13.24;47.90;98983.63;4959479;28;8858;-79
2022/01/04 09:29:37;;;;;;;;;28.00;25.40;;;;;13.34;47.16;98989.56;5024575;28;8878;-79
2022/01/04 09:32:07;;;;;;;;;31.00;28.40;;;;;13.48;48.01;98973.59;5008303;28;8847;-78
2022/01/04 09:34:35;;;;;;;;;29.80;27.60;;;;;13.50;47.53;98976.19;5007491;28;8893;-76
2022/01/04 09:37:05;;;;;;;;;25.40;23.20;;;;;13.53;47.27;98966.47;4975486;28;8884;-76
2022/01/04 09:39:34;;;;;;;;;17.00;17.00;;;;;13.72;47.64;98966.06;5007986;28;8866;-77
2022/01/04 09:42:03;;;;;;;;;27.00;23.20;;;;;13.77;46.64;98962.44;5007745;28;8947;-79
2022/01/04 09:44:32;;;;;;;;;23.20;23.20;;;;;13.98;46.77;98955.84;5011408;28;8902;-76
2022/01/04 09:47:04;;;;;;;;;18.00;17.20;;;;;14.16;46.30;98951.06;5028955;28;8894;-80
2022/01/04 09:49:33;;;;;;;;;22.60;20.60;;;;;14.22;45.74;98950.91;5030359;28;8859;-78
2022/01/04 09:52:04;;;;;;;;;8.60;6.20;;;;;14.19;45.25;98946.59;5028356;28;9756;-78
2022/01/04 09:54:34;;;;;;;;;14.20;13.20;;;;;14.16;45.37;98940.59;5047300;28;8839;-77
2022/01/04 09:57:04;;;;;;;;;22.20;20.40;;;;;14.17;45.15;98943.13;5036308;28;9173;-80
2022/01/04 09:59:33;;;;;;;;;24.40;22.80;;;;;14.18;45.57;98941.41;5034411;28;8864;-77
2022/01/04 10:02:14;;;;;;;;;21.60;20.20;;;;;14.39;45.54;98934.75;5050890;28;8863;-79
2022/01/04 10:04:44;;;;;;;;;21.00;19.40;;;;;14.51;45.19;98930.94;5018157;28;8874;-76
2022/01/04 10:07:12;;;;;;;;;22.00;21.80;;;;;14.65;44.56;98925.34;5050517;28;8839;-77
2022/01/04 10:09:44;;;;;;;;;32.80;29.80;;;;;14.75;44.91;98926.81;5066795;28;8840;-78
2022/01/04 10:12:15;;;;;;;;;30.20;29.00;;;;;14.87;44.53;98921.22;5067276;28;8848;-77
2022/01/04 10:14:46;;;;;;;;;27.00;25.60;;;;;14.85;43.45;98909.06;5050614;28;9419;-76
2022/01/04 10:17:20;;;;;;;;;25.00;24.00;;;;;14.82;43.17;98902.97;5050350;28;8876;-79
2022/01/04 10:19:51;;;;;;;;;35.00;30.60;;;;;14.84;43.90;98905.56;5050250;28;8840;-78
2022/01/04 10:22:24;;;;;;;;;30.00;26.80;;;;;14.68;43.75;98899.88;5043089;28;8860;-79
2022/01/04 10:25:13;;;;;;;;;25.40;22.60;;;;;14.85;44.36;98888.91;5026416;28;8969;-79
2022/01/04 10:27:43;;;;;;;;;23.20;22.20;;;;;14.82;42.75;98886.38;4994260;28;8858;-79
2022/01/04 10:30:16;;;;;;;;;20.60;19.00;;;;;14.80;43.12;98881.19;5010331;28;8946;-79
2022/01/04 10:32:49;;;;;;;;;15.00;14.80;;;;;15.09;42.84;98881.22;5010442;28;9657;-78
2022/01/04 10:35:30;;;;;;;;;20.40;19.40;;;;;15.21;43.02;98867.72;5010600;28;8868;-78
2022/01/04 10:38:01;;;;;;;;;19.60;17.80;;;;;15.23;42.76;98870.31;5027004;28;8860;-78
2022/01/04 10:40:31;;;;;;;;;22.20;20.40;;;;;15.33;43.15;98864.72;5010380;28;8864;-77
2022/01/04 10:43:08;;;;;;;;;20.40;20.00;;;;;15.55;43.35;98854.38;5010773;28;8844;-78
2022/01/04 10:45:39;;;;;;;;;16.60;16.00;;;;;15.51;42.32;98855.41;4994252;28;8832;-79
2022/01/04 10:48:28;;;;;;;;;14.60;13.80;;;;;15.76;42.34;98854.63;5026918;28;8832;-79
2022/01/04 10:50:58;;;;;;;;;20.40;16.80;;;;;15.74;41.84;98859.09;5010599;28;8844;-76
2022/01/04 10:53:29;;;;;;;;;15.20;15.20;;;;;15.73;42.08;98852.97;5009921;28;8865;-80
2022/01/04 10:56:01;;;;;;;;;14.80;14.20;;;;;15.92;42.27;98847.13;5047748;28;8841;-77
2022/01/04 10:58:34;;;;;;;;;22.00;17.40;;;;;15.83;41.66;98847.41;5046972;28;8964;-80
2022/01/04 11:01:06;;;;;;;;;16.20;16.20;;;;;15.86;41.85;98834.16;5031251;28;8864;-78
2022/01/04 11:03:38;;;;;;;;;17.60;17.60;;;;;15.98;41.68;98824.09;5030916;28;8979;-76
2022/01/04 11:06:11;;;;;;;;;22.80;21.00;;;;;16.15;41.59;98817.41;5047667;28;8845;-78
2022/01/04 11:08:41;;;;;;;;;18.60;17.40;;;;;16.31;41.18;98813.31;5064403;28;8837;-77
2022/01/04 11:11:10;;;;;;;;;18.00;17.00;;;;;16.31;40.88;98815.06;5064386;28;8853;-78
2022/01/04 11:13:40;;;;;;;;;18.80;17.00;;;;;16.44;40.49;98808.44;5047718;28;8849;-79
2022/01/04 11:16:09;;;;;;;;;14.80;14.80;;;;;16.52;40.22;98803.78;5048208;28;8958;-81
2022/01/04 11:18:41;;;;;;;;;18.20;17.20;;;;;16.44;40.72;98810.22;5047592;28;8872;-79
2022/01/04 11:21:14;;;;;;;;;18.00;15.20;;;;;16.49;40.86;98811.78;5047646;28;9645;-80
2022/01/04 11:23:43;;;;;;;;;13.80;13.40;;;;;16.53;39.89;98799.38;5030913;28;8931;-78
2022/01/04 11:26:14;;;;;;;;;11.60;10.40;;;;;16.49;39.99;98790.72;5064396;28;8853;-79
2022/01/04 11:28:45;;;;;;;;;10.60;9.60;;;;;16.47;40.03;98796.97;4966569;28;8841;-81
2022/01/04 11:31:30;;;;;;;;;11.00;11.00;;;;;16.53;40.01;98788.84;5047502;28;8881;-76
2022/01/04 11:34:11;;;;;;;;;12.20;10.00;;;;;16.35;39.94;98795.63;5030054;28;8841;-79
2022/01/04 11:36:43;;;;;;;;;15.80;15.20;;;;;16.38;39.97;98787.63;5063870;28;8849;-77
2022/01/04 11:39:29;;;;;;;;;13.20;13.20;;;;;16.17;40.66;98776.09;5063975;28;8888;-77
2022/01/04 11:41:59;;;;;;;;;13.60;13.60;;;;;16.38;40.58;98770.06;5046074;28;8873;-80
2022/01/04 11:44:31;;;;;;;;;9.20;8.00;;;;;16.24;40.42;98774.97;5048568;28;8968;-79
2022/01/04 11:47:09;;;;;;;;;15.40;13.60;;;;;16.29;40.33;98769.53;5033756;28;9008;-78
2022/01/04 11:50:00;;;;;;;;;15.40;13.40;;;;;16.30;40.49;98766.84;5051799;28;9015;-76